Time;durP1;ratioP1;P1;durP2;ratioP2;P2;SDS_P1;SDS_P2;PMS_P1;PMS_P2;Temp;Humidity;BMP_temperature;BMP_pressure;BME280_temperature;BME280_humidity;BME280_pressure;Samples;Min_cycle;Max_cycle;Signal;HPM_P1;HPM_P2
2022/12/12 00:00:33;;;;;;;32.35;14.40;;;;;;;0.32;78.28;100983.53;5080456;28;20027;-87
2022/12/12 00:02:58;;;;;;;28.75;13.52;;;;;;;0.18;77.33;100986.06;5087049;28;20040;-87
2022/12/12 00:05:23;;;;;;;23.55;12.50;;;;;;;0.06;77.70;100992.94;5082724;28;20020;-87
2022/12/12 00:07:49;;;;;;;26.83;13.07;;;;;;;-0.09;77.59;100994.63;5099204;28;20069;-87
2022/12/12 00:10:14;;;;;;;25.42;13.10;;;;;;;-0.14;77.44;100985.03;5087337;28;20444;-87
2022/12/12 00:12:40;;;;;;;29.38;13.63;;;;;;;-0.37;77.11;100982.31;5076116;28;20097;-87
2022/12/12 00:15:06;;;;;;;29.25;14.02;;;;;;;-0.43;79.06;100987.44;5102507;28;20038;-86
2022/12/12 00:17:31;;;;;;;30.90;13.75;;;;;;;-0.46;79.04;100987.44;5079896;28;20426;-87
2022/12/12 00:19:56;;;;;;;25.58;14.10;;;;;;;-0.46;79.98;100977.06;5074693;28;20043;-87
2022/12/12 00:22:22;;;;;;;29.02;13.85;;;;;;;-0.43;80.95;100984.84;5074144;28;20051;-87
2022/12/12 00:24:47;;;;;;;27.80;12.93;;;;;;;-0.49;79.04;100977.03;5083996;28;20074;-87
2022/12/12 00:27:12;;;;;;;26.08;12.88;;;;;;;-0.53;78.46;100986.50;5101173;28;20031;-87
2022/12/12 00:29:37;;;;;;;22.83;11.80;;;;;;;-0.66;78.03;100995.06;5105539;28;20085;-87
2022/12/12 00:32:03;;;;;;;25.92;12.80;;;;;;;-0.82;78.05;100979.38;5083704;28;20038;-87
2022/12/12 00:34:29;;;;;;;24.38;12.95;;;;;;;-0.91;79.03;100986.22;5075194;28;20212;-87
2022/12/12 00:36:54;;;;;;;26.42;14.02;;;;;;;-0.80;80.46;100998.41;5083004;28;20020;-87
2022/12/12 00:39:21;;;;;;;26.95;13.27;;;;;;;-0.77;79.99;100997.56;5083850;28;20024;-88
2022/12/12 00:41:47;;;;;;;23.65;12.18;;;;;;;-0.81;79.49;100996.66;5102735;28;20055;-87
2022/12/12 00:44:12;;;;;;;27.38;13.73;;;;;;;-0.82;80.04;100999.25;5076017;28;20510;-87
2022/12/12 00:46:38;;;;;;;26.27;13.20;;;;;;;-0.84;79.71;101000.97;5089391;28;20490;-88
2022/12/12 00:49:03;;;;;;;30.85;14.50;;;;;;;-0.88;79.51;100997.50;5106043;28;20034;-87
2022/12/12 00:51:29;;;;;;;27.70;13.80;;;;;;;-0.82;79.85;101007.06;5099725;28;20028;-88
2022/12/12 00:53:56;;;;;;;29.52;14.23;;;;;;;-0.86;79.81;101006.16;5082131;28;20028;-87
2022/12/12 00:56:23;;;;;;;29.05;13.40;;;;;;;-0.88;80.39;101004.41;5093968;28;20028;-87
2022/12/12 00:58:49;;;;;;;32.10;13.85;;;;;;;-0.84;80.75;101007.03;5093583;28;20024;-87
2022/12/12 01:01:17;;;;;;;29.75;13.05;;;;;;;-0.87;80.86;101000.94;5082093;28;20069;-87
2022/12/12 01:03:44;;;;;;;31.05;13.82;;;;;;;-0.95;80.77;100987.03;5077478;28;20673;-88
2022/12/12 01:06:10;;;;;;;31.02;13.52;;;;;;;-0.93;81.26;101003.47;5076700;28;20027;-87
2022/12/12 01:08:37;;;;;;;28.23;13.10;;;;;;;-0.95;80.53;101013.84;5093365;28;20383;-87
2022/12/12 01:11:03;;;;;;;31.02;14.98;;;;;;;-0.99;80.38;101013.78;5081530;28;20023;-87
2022/12/12 01:13:29;;;;;;;29.02;14.00;;;;;;;-1.10;80.63;101006.78;5079704;28;20046;-87
2022/12/12 01:15:55;;;;;;;29.92;13.77;;;;;;;-1.11;80.19;101011.97;5068952;28;20483;-87
2022/12/12 01:18:21;;;;;;;28.83;15.05;;;;;;;-1.13;79.51;101019.72;5079067;28;20069;-87
2022/12/12 01:20:46;;;;;;;31.27;14.48;;;;;;;-1.27;80.33;101020.44;5086353;28;20039;-87
2022/12/12 01:23:11;;;;;;;27.35;13.30;;;;;;;-1.24;81.37;101020.47;5085737;28;20112;-87
2022/12/12 01:25:37;;;;;;;26.40;13.07;;;;;;;-1.27;80.40;101026.47;5101284;28;20028;-87
2022/12/12 01:28:03;;;;;;;29.13;13.65;;;;;;;-1.37;81.10;101019.47;5100100;28;20020;-87
2022/12/12 01:30:29;;;;;;;28.25;14.07;;;;;;;-1.37;80.96;101020.31;5103466;28;20031;-87
2022/12/12 01:32:54;;;;;;;29.33;13.80;;;;;;;-1.42;79.27;101026.31;5097778;28;20027;-87
2022/12/12 01:35:21;;;;;;;24.88;13.55;;;;;;;-1.55;79.66;101017.50;5106354;28;20111;-87
2022/12/12 01:37:48;;;;;;;27.25;14.18;;;;;;;-1.59;80.37;101037.34;5089443;28;20027;-87
2022/12/12 01:40:16;;;;;;;29.10;14.48;;;;;;;-1.56;79.63;101044.31;5087852;28;20030;-87
2022/12/12 01:42:42;;;;;;;29.52;14.20;;;;;;;-1.72;79.99;101019.91;5100471;28;20036;-87
2022/12/12 01:45:27;;;;;;;25.95;13.15;;;;;;;-1.72;79.58;101032.00;5082868;28;20501;-87
2022/12/12 01:47:53;;;;;;;29.33;13.30;;;;;;;-1.80;79.48;101032.75;5105378;28;20059;-87
2022/12/12 01:50:18;;;;;;;25.52;12.57;;;;;;;-1.74;79.49;101038.88;5081837;28;20068;-87
2022/12/12 01:52:48;;;;;;;25.90;13.02;;;;;;;-1.68;79.95;101049.31;5102073;28;20077;-87
2022/12/12 01:55:21;;;;;;;29.73;14.45;;;;;;;-1.68;80.59;101045.03;5101117;28;20034;-87
2022/12/12 01:57:51;;;;;;;28.75;13.77;;;;;;;-1.76;79.41;101040.59;5103367;28;20118;-87
2022/12/12 02:00:18;;;;;;;24.10;12.60;;;;;;;-1.86;79.36;101039.59;5102454;28;20019;-87
2022/12/12 02:02:45;;;;;;;28.38;14.13;;;;;;;-1.98;78.93;101042.88;5088039;28;20513;-87
2022/12/12 02:05:27;;;;;;;27.45;12.88;;;;;;;-1.91;79.42;101061.97;5097035;28;20375;-87
2022/12/12 02:07:54;;;;;;;27.45;13.90;;;;;;;-2.06;80.17;101040.16;5103041;28;20444;-87
2022/12/12 02:10:19;;;;;;;25.48;12.43;;;;;;;-1.96;80.54;101051.56;5105540;28;20027;-87
2022/12/12 02:12:45;;;;;;;29.88;14.30;;;;;;;-1.98;79.71;101045.47;5086588;28;20467;-87
2022/12/12 02:15:11;;;;;;;29.08;13.85;;;;;;;-1.88;81.26;101062.88;5079881;28;20020;-87
2022/12/12 02:17:43;;;;;;;29.70;12.85;;;;;;;-1.88;81.17;101067.19;5086657;28;20035;-87
2022/12/12 02:20:31;;;;;;;28.10;13.88;;;;;;;-2.00;80.61;101047.19;5102939;28;20514;-87
2022/12/12 02:23:40;;;;;;;29.27;13.57;;;;;;;-1.99;79.90;101048.91;5083557;28;20024;-87
2022/12/12 02:26:20;;;;;;;28.30;14.23;;;;;;;-1.85;80.43;101069.84;5098930;28;20459;-87
2022/12/12 02:29:19;;;;;;;30.73;13.85;;;;;;;-1.81;80.46;101063.84;5081063;28;20656;-87
2022/12/12 02:31:54;;;;;;;28.02;13.50;;;;;;;-1.81;82.03;101056.09;5077238;28;20804;-87
2022/12/12 02:34:22;;;;;;;33.58;14.82;;;;;;;-1.73;80.80;101067.41;5087863;28;20057;-87
2022/12/12 02:37:10;;;;;;;29.88;14.13;;;;;;;-1.77;80.28;101067.34;5083848;28;20028;-87
2022/12/12 02:39:57;;;;;;;27.10;13.23;;;;;;;-1.81;80.00;101075.09;5108279;28;20467;-87
2022/12/12 02:42:48;;;;;;;30.73;13.43;;;;;;;-1.84;80.20;101068.97;5079312;28;20035;-87
2022/12/12 02:45:24;;;;;;;27.07;14.87;;;;;;;-1.89;81.38;101063.75;5096047;28;20069;-87
2022/12/12 02:47:56;;;;;;;28.75;14.18;;;;;;;-1.96;80.07;101058.44;5103586;28;20269;-87
2022/12/12 02:50:26;;;;;;;29.77;13.30;;;;;;;-2.04;79.38;101060.06;5100130;28;20044;-87
2022/12/12 02:52:51;;;;;;;31.50;14.40;;;;;;;-2.11;80.39;101054.78;5103713;28;20024;-87
2022/12/12 02:55:18;;;;;;;27.85;14.13;;;;;;;-2.14;80.33;101059.06;5077682;28;20145;-87
2022/12/12 02:57:43;;;;;;;31.13;13.65;;;;;;;-2.26;79.11;101053.69;5080896;28;20023;-87
2022/12/12 03:00:12;;;;;;;27.48;13.90;;;;;;;-2.50;79.25;101041.22;5076320;28;20034;-87
2022/12/12 03:02:48;;;;;;;31.30;14.13;;;;;;;-2.40;81.06;101071.59;5093508;28;20494;-87
2022/12/12 03:09:05;;;;;;;29.50;13.80;;;;;;;-2.40;81.10;101054.34;5096049;28;20031;-87
2022/12/12 03:11:47;;;;;;;22.50;12.90;;;;;;;-2.47;78.86;101065.44;5096017;28;20039;-86
2022/12/12 03:14:59;;;;;;;27.52;13.73;;;;;;;-2.65;79.29;101059.97;5103056;28;20160;-87
2022/12/12 03:17:53;;;;;;;31.85;14.30;;;;;;;-2.74;79.05;101062.41;5053889;28;20032;-87
2022/12/12 03:20:32;;;;;;;28.73;12.18;;;;;;;-2.91;78.53;101057.78;5099524;28;20024;-86
2022/12/12 03:23:08;;;;;;;27.77;13.40;;;;;;;-3.07;78.63;101050.59;5096183;28;20102;-86
2022/12/12 03:25:40;;;;;;;32.00;13.52;;;;;;;-3.19;79.40;101042.59;5095298;28;21094;-87
2022/12/12 03:28:26;;;;;;;28.17;13.10;;;;;;;-3.15;78.81;101057.34;5074985;28;20041;-87
2022/12/12 03:30:54;;;;;;;28.27;13.80;;;;;;;-3.20;79.59;101062.41;5075137;28;20032;-86
2022/12/12 03:33:29;;;;;;;26.27;12.55;;;;;;;-3.14;79.63;101072.88;5080120;28;20031;-87
2022/12/12 03:36:05;;;;;;;27.60;14.70;;;;;;;-3.26;78.83;101054.56;5100034;28;20024;-87
2022/12/12 03:38:35;;;;;;;25.35;13.13;;;;;;;-3.29;79.22;101053.63;5080595;28;20024;-86
2022/12/12 03:41:04;;;;;;;28.70;13.52;;;;;;;-3.25;78.91;101066.63;5099636;28;20478;-86
2022/12/12 03:43:34;;;;;;;24.65;13.32;;;;;;;-3.46;79.38;101042.94;5095274;28;20039;-86
2022/12/12 03:46:13;;;;;;;34.08;13.98;;;;;;;-3.42;78.82;101055.94;5073600;28;20020;-86
2022/12/12 03:48:47;;;;;;;27.05;13.68;;;;;;;-3.47;78.64;101064.44;5072535;28;20505;-86
2022/12/12 03:51:51;;;;;;;31.50;15.02;;;;;;;-3.50;79.21;101059.22;5099108;28;20051;-86
2022/12/12 03:54:25;;;;;;;27.65;13.43;;;;;;;-3.50;79.24;101064.38;5029944;28;20176;-87
2022/12/12 03:56:57;;;;;;;27.75;13.82;;;;;;;-3.54;79.11;101054.81;5092686;28;20411;-86
2022/12/12 03:59:30;;;;;;;26.60;12.90;;;;;;;-3.56;78.99;101051.34;5077949;28;20051;-86
2022/12/12 04:02:18;;;;;;;24.92;12.13;;;;;;;-3.54;78.86;101060.88;5084683;28;20032;-86
2022/12/12 04:05:05;;;;;;;32.05;14.73;;;;;;;-3.52;78.71;101060.91;5092464;28;20028;-86
2022/12/12 04:07:34;;;;;;;28.50;14.15;;;;;;;-3.37;81.06;101074.13;5088410;28;20028;-86
2022/12/12 04:12:58;;;;;;;29.15;12.88;;;;;;;-3.29;80.29;101080.34;5092487;28;20089;-86
2022/12/12 04:15:59;;;;;;;26.13;12.55;;;;;;;-3.30;79.61;101078.59;5090082;28;20681;-86
2022/12/12 04:18:47;;;;;;;25.95;12.35;;;;;;;-3.47;78.78;101065.31;5084248;28;20043;-87
2022/12/12 04:24:37;;;;;;;28.15;12.70;;;;;;;-3.53;78.46;101082.44;5100413;28;20039;-86
2022/12/12 04:27:08;;;;;;;26.33;13.13;;;;;;;-3.69;79.92;101064.00;5087377;28;20035;-86
2022/12/12 04:29:43;;;;;;;29.75;14.05;;;;;;;-3.78;78.39;101063.78;5099220;28;20024;-86
2022/12/12 04:32:12;;;;;;;27.77;13.18;;;;;;;-3.71;79.47;101086.34;5104349;28;20036;-86
2022/12/12 04:34:48;;;;;;;27.45;13.13;;;;;;;-3.68;78.73;101091.59;5083260;28;20038;-86
2022/12/12 04:37:18;;;;;;;26.15;12.85;;;;;;;-3.70;79.18;101090.66;5101610;28;20391;-86
2022/12/12 04:39:48;;;;;;;30.75;13.13;;;;;;;-3.76;80.86;101077.63;5102126;28;20039;-86
2022/12/12 04:42:20;;;;;;;29.83;13.93;;;;;;;-3.69;80.29;101087.25;5111795;28;20031;-87
2022/12/12 04:44:46;;;;;;;31.73;14.60;;;;;;;-3.67;81.19;101093.34;5080531;28;20019;-86
2022/12/12 04:47:14;;;;;;;29.67;13.55;;;;;;;-3.60;80.16;101102.94;5076422;28;20390;-86
2022/12/12 04:49:44;;;;;;;33.33;14.60;;;;;;;-3.66;80.42;101100.25;5102872;28;20642;-86
2022/12/12 04:52:12;;;;;;;28.13;14.52;;;;;;;-3.67;80.73;101092.47;5097270;28;20026;-86
2022/12/12 04:54:47;;;;;;;34.55;13.55;;;;;;;-3.69;80.63;101089.81;5087666;28;20062;-86
2022/12/12 04:57:20;;;;;;;35.60;13.85;;;;;;;-3.64;81.00;101105.44;5082997;28;20036;-86
2022/12/12 04:59:45;;;;;;;29.63;14.07;;;;;;;-3.73;81.44;101077.72;5095312;28;20099;-86
2022/12/12 05:02:25;;;;;;;28.23;14.13;;;;;;;-3.62;81.03;101096.88;5080772;28;20115;-86
2022/12/12 05:05:11;;;;;;;33.97;15.07;;;;;;;-3.60;80.31;101100.34;5080389;28;20024;-86
2022/12/12 05:07:42;;;;;;;29.67;13.88;;;;;;;-3.76;80.75;101082.81;5097942;28;20037;-86
2022/12/12 05:10:14;;;;;;;31.70;15.10;;;;;;;-3.67;81.34;101090.75;5083394;28;20028;-86
2022/12/12 05:12:50;;;;;;;32.53;14.63;;;;;;;-3.56;81.69;101100.44;5101336;28;20028;-86
2022/12/12 05:15:18;;;;;;;30.50;13.27;;;;;;;-3.64;81.55;101082.19;5088292;28;20389;-87
2022/12/12 05:17:47;;;;;;;30.88;14.13;;;;;;;-3.52;81.41;101099.66;5100151;28;20087;-86
2022/12/12 05:20:14;;;;;;;29.52;13.35;;;;;;;-3.57;80.86;101091.81;5073220;28;20198;-86
2022/12/12 05:22:39;;;;;;;34.70;13.75;;;;;;;-3.69;80.91;101081.22;5109377;28;20026;-86
2022/12/12 05:25:05;;;;;;;29.67;13.50;;;;;;;-3.68;80.21;101090.72;5097536;28;20106;-86
2022/12/12 05:27:30;;;;;;;27.10;12.77;;;;;;;-3.72;80.97;101084.63;5100712;28;20019;-86
2022/12/12 05:29:56;;;;;;;35.25;15.18;;;;;;;-3.79;80.70;101074.09;5078606;28;20089;-86
2022/12/12 05:32:21;;;;;;;32.75;14.80;;;;;;;-3.67;81.46;101087.28;5085412;28;20020;-87
2022/12/12 05:34:47;;;;;;;30.33;14.30;;;;;;;-3.70;81.25;101090.66;5100967;28;20471;-87
2022/12/12 05:37:12;;;;;;;27.55;12.70;;;;;;;-3.66;80.34;101108.00;5079166;28;20438;-87
2022/12/12 05:39:37;;;;;;;30.65;13.93;;;;;;;-3.78;80.59;101091.34;5078727;28;20035;-86
2022/12/12 05:42:03;;;;;;;29.08;13.52;;;;;;;-3.73;79.98;101108.72;5106234;28;20115;-86
2022/12/12 05:44:28;;;;;;;30.52;13.90;;;;;;;-3.86;80.71;101091.19;5104158;28;20475;-86
2022/12/12 05:46:54;;;;;;;31.25;13.20;;;;;;;-3.86;80.89;101099.81;5097035;28;20399;-86
2022/12/12 05:49:19;;;;;;;31.48;14.75;;;;;;;-3.82;80.31;101102.44;5078966;28;20054;-86
2022/12/12 05:51:44;;;;;;;28.00;13.23;;;;;;;-3.91;79.98;101092.81;5099540;28;20073;-86
2022/12/12 05:54:10;;;;;;;30.13;13.00;;;;;;;-3.95;78.97;101106.47;5081688;28;20065;-86
2022/12/12 05:56:35;;;;;;;29.85;13.52;;;;;;;-4.16;79.01;101097.38;5084649;28;20502;-86
2022/12/12 05:59:00;;;;;;;27.50;12.98;;;;;;;-4.10;80.62;101117.31;5083706;28;20100;-87
2022/12/12 06:01:26;;;;;;;30.73;13.50;;;;;;;-4.12;81.44;101094.03;5078769;28;20027;-86
2022/12/12 06:03:51;;;;;;;29.25;13.25;;;;;;;-4.06;80.81;101105.34;5083009;28;20027;-86
2022/12/12 06:06:16;;;;;;;35.13;14.13;;;;;;;-4.01;81.25;101111.47;5074837;28;20531;-86
2022/12/12 06:08:41;;;;;;;32.80;14.45;;;;;;;-4.00;81.64;101105.50;5094908;28;20024;-86
2022/12/12 06:11:07;;;;;;;28.23;13.10;;;;;;;-3.93;81.47;101115.97;5095510;28;20024;-87
2022/12/12 06:13:33;;;;;;;30.33;14.15;;;;;;;-4.11;81.08;101089.72;5084789;28;20023;-86
2022/12/12 06:15:59;;;;;;;27.90;13.10;;;;;;;-4.12;81.07;101101.78;5078707;28;20407;-87
2022/12/12 06:18:24;;;;;;;29.38;13.93;;;;;;;-4.05;80.69;101120.88;5082441;28;20019;-87
2022/12/12 06:20:49;;;;;;;28.98;13.10;;;;;;;-4.23;79.27;101110.13;5095706;28;21128;-87
2022/12/12 06:23:14;;;;;;;32.47;14.15;;;;;;;-4.27;79.58;101124.66;5103320;28;20031;-87
2022/12/12 06:25:40;;;;;;;25.55;12.88;;;;;;;-4.33;79.90;101110.72;5100268;28;20331;-87
2022/12/12 06:28:05;;;;;;;25.92;12.32;;;;;;;-4.34;79.80;101117.56;5106270;28;20058;-87
2022/12/12 06:30:30;;;;;;;28.52;12.98;;;;;;;-4.29;79.39;101131.50;5085548;28;20023;-87
2022/12/12 06:32:56;;;;;;;31.25;12.40;;;;;;;-4.44;79.30;101110.44;5103724;28;20057;-87
2022/12/12 06:35:21;;;;;;;33.22;13.23;;;;;;;-4.49;80.00;101106.88;5100791;28;20107;-86
2022/12/12 06:37:47;;;;;;;34.33;12.90;;;;;;;-4.28;80.17;101129.78;5076793;28;20079;-87
2022/12/12 06:40:13;;;;;;;31.63;15.00;;;;;;;-4.32;81.34;101110.75;5083296;28;20032;-87
2022/12/12 06:42:38;;;;;;;34.28;14.15;;;;;;;-4.32;80.81;101115.94;5096733;28;20144;-86
2022/12/12 06:45:04;;;;;;;30.45;12.80;;;;;;;-4.25;81.24;101122.97;5095474;28;20498;-86
2022/12/12 06:47:29;;;;;;;34.03;14.82;;;;;;;-4.16;81.14;101140.38;5082132;28;20027;-86
2022/12/12 06:49:55;;;;;;;34.80;12.32;;;;;;;-4.28;80.27;101125.50;5077764;28;20055;-87
2022/12/12 06:52:20;;;;;;;29.85;11.93;;;;;;;-4.31;79.53;101133.16;5084393;28;20114;-86
2022/12/12 06:54:46;;;;;;;25.40;11.93;;;;;;;-4.44;79.15;101138.84;5089448;28;20031;-86
2022/12/12 06:57:11;;;;;;;27.02;11.95;;;;;;;-4.50;78.88;101143.84;5083424;28;20027;-86
2022/12/12 06:59:36;;;;;;;30.55;13.77;;;;;;;-4.59;78.73;101138.44;5084047;28;20039;-86
2022/12/12 07:02:02;;;;;;;31.30;14.05;;;;;;;-4.68;78.76;101131.34;5074546;28;20020;-86
2022/12/12 07:04:28;;;;;;;32.63;12.73;;;;;;;-4.74;78.56;101132.06;5091731;28;20275;-87
2022/12/12 07:06:53;;;;;;;31.10;12.10;;;;;;;-4.71;79.54;101133.81;5096177;28;20042;-86
2022/12/12 07:09:19;;;;;;;39.28;15.27;;;;;;;-4.65;81.24;101131.44;5084376;28;20376;-86
2022/12/12 07:11:45;;;;;;;31.33;13.45;;;;;;;-4.54;81.08;101147.19;5099897;28;20072;-87
2022/12/12 07:14:10;;;;;;;29.50;12.70;;;;;;;-4.59;80.63;101141.03;5100461;28;20028;-87
2022/12/12 07:16:35;;;;;;;31.33;12.90;;;;;;;-4.60;79.88;101145.31;5082939;28;20034;-86
2022/12/12 07:19:01;;;;;;;30.25;12.80;;;;;;;-4.57;80.02;101157.41;5107152;28;20129;-86
2022/12/12 07:21:26;;;;;;;31.98;13.50;;;;;;;-4.67;79.84;101152.00;5103216;28;20023;-87
2022/12/12 07:23:52;;;;;;;33.22;12.70;;;;;;;-4.72;79.26;101153.59;5093571;28;20119;-86
2022/12/12 07:26:19;;;;;;;33.00;13.18;;;;;;;-4.74;78.17;101167.28;5083303;28;20023;-86
2022/12/12 07:28:45;;;;;;;29.13;12.48;;;;;;;-4.87;77.78;101186.69;5104955;28;20062;-87
2022/12/12 07:31:13;;;;;;;27.63;12.07;;;;;;;-4.99;78.35;101182.09;5099425;28;20060;-86
2022/12/12 07:33:40;;;;;;;25.35;12.00;;;;;;;-5.02;79.39;101179.41;5102342;28;20032;-87
2022/12/12 07:36:06;;;;;;;35.15;15.25;;;;;;;-4.83;81.01;101167.91;5081374;28;20024;-87
2022/12/12 07:38:32;;;;;;;34.67;13.48;;;;;;;-4.66;81.34;101147.75;5078315;28;20065;-87
2022/12/12 07:41:06;;;;;;;36.55;15.25;;;;;;;-4.40;81.29;101176.78;5101589;28;20035;-87
2022/12/12 07:43:33;;;;;;;32.85;14.68;;;;;;;-4.46;81.31;101162.03;5092781;28;20063;-87
2022/12/12 07:45:58;;;;;;;37.45;15.02;;;;;;;-4.28;81.10;101177.13;5094554;28;20055;-87
2022/12/12 07:48:26;;;;;;;39.60;14.18;;;;;;;-4.37;79.57;101174.28;5091940;28;20054;-87
2022/12/12 07:50:51;;;;;;;33.05;13.38;;;;;;;-4.53;79.36;101164.41;5075054;28;20055;-87
2022/12/12 07:53:16;;;;;;;30.65;12.88;;;;;;;-4.42;79.99;101181.06;5078001;28;20028;-87
2022/12/12 07:55:42;;;;;;;28.55;13.60;;;;;;;-4.53;78.90;101182.44;5095267;28;20513;-87
2022/12/12 07:58:07;;;;;;;27.10;12.75;;;;;;;-4.61;78.71;101174.53;5100595;28;20030;-87
2022/12/12 08:00:32;;;;;;;26.58;11.43;;;;;;;-4.66;79.28;101169.25;5098870;28;20482;-87
2022/12/12 08:02:58;;;;;;;32.40;12.95;;;;;;;-4.60;79.98;101186.59;5102497;28;20111;-86
2022/12/12 08:05:23;;;;;;;33.45;13.10;;;;;;;-4.62;80.26;101170.19;5079145;28;20024;-87
2022/12/12 08:07:48;;;;;;;37.42;14.38;;;;;;;-4.42;79.75;101199.09;5084155;28;20035;-87
2022/12/12 08:10:14;;;;;;;23.90;11.52;;;;;;;-4.36;80.00;101201.84;5082659;28;20085;-87
2022/12/12 08:12:39;;;;;;;33.25;13.90;;;;;;;-4.37;80.05;101189.78;5084467;28;20530;-86
2022/12/12 08:15:05;;;;;;;32.90;13.18;;;;;;;-4.34;79.91;101183.81;5081932;28;20039;-87
2022/12/12 08:17:30;;;;;;;27.98;12.50;;;;;;;-4.21;80.06;101196.19;5089340;28;20020;-87
2022/12/12 08:19:55;;;;;;;37.38;13.02;;;;;;;-4.24;79.15;101201.31;5093214;28;20077;-87
2022/12/12 08:22:21;;;;;;;28.92;12.38;;;;;;;-4.15;80.13;101212.72;5095822;28;20118;-87
2022/12/12 08:24:48;;;;;;;32.45;11.40;;;;;;;-4.14;80.54;101200.69;5096312;28;20216;-87
2022/12/12 08:27:13;;;;;;;40.35;15.27;;;;;;;-3.99;81.01;101193.31;5071899;28;20024;-87
2022/12/12 08:29:38;;;;;;;32.70;13.23;;;;;;;-3.47;80.84;101206.59;5074518;28;20072;-87
2022/12/12 08:32:04;;;;;;;37.75;13.95;;;;;;;-3.13;79.87;101218.53;5080341;28;20020;-87
2022/12/12 08:34:29;;;;;;;33.88;14.27;;;;;;;-3.03;79.65;101211.84;5092887;28;20032;-88
2022/12/12 08:36:54;;;;;;;35.40;14.40;;;;;;;-2.94;79.88;101201.69;5077441;28;20054;-88
2022/12/12 08:39:20;;;;;;;29.65;13.88;;;;;;;-2.84;79.46;101189.00;5104298;28;20024;-89
2022/12/12 08:41:47;;;;;;;34.35;14.68;;;;;;;-2.63;79.41;101209.22;5102437;28;20019;-88
2022/12/12 08:44:14;;;;;;;32.95;13.52;;;;;;;-2.29;79.40;101221.94;5090027;28;20457;-86
2022/12/12 08:46:40;;;;;;;30.27;13.60;;;;;;;-1.92;78.15;101218.28;5074499;28;20471;-86
2022/12/12 08:49:06;;;;;;;34.15;14.75;;;;;;;-1.51;78.47;101229.31;5072711;28;20076;-88
2022/12/12 08:51:33;;;;;;;36.38;15.93;;;;;;;-1.17;77.72;101219.41;5077348;28;20043;-90
2022/12/12 08:53:58;;;;;;;34.55;12.70;;;;;;;-0.70;78.02;101209.66;5075843;28;20027;-91
2022/12/12 08:56:23;;;;;;;33.20;13.93;;;;;;;-0.60;77.01;101203.72;5097594;28;20521;-90
2022/12/12 08:58:49;;;;;;;33.78;14.02;;;;;;;-0.34;76.07;101218.69;5080430;28;20063;-91
2022/12/12 09:01:17;;;;;;;29.73;11.98;;;;;;;-0.17;75.49;101227.53;5091248;28;20032;-91
2022/12/12 09:03:43;;;;;;;28.88;12.38;;;;;;;-0.30;75.21;101212.69;5076532;28;20031;-91
2022/12/12 09:06:09;;;;;;;32.05;13.35;;;;;;;0.24;74.01;101214.91;5076396;28;20484;-91
2022/12/12 09:08:35;;;;;;;26.70;13.10;;;;;;;0.88;73.12;101222.25;5102267;28;20041;-91
2022/12/12 09:11:01;;;;;;;34.22;13.27;;;;;;;1.45;72.29;101226.00;5091955;27;20038;-92
2022/12/12 09:13:26;;;;;;;29.90;13.18;;;;;;;2.31;70.58;101226.13;5089496;28;20501;-91
2022/12/12 09:15:52;;;;;;;36.65;13.63;;;;;;;2.66;67.39;101227.84;5098649;28;20031;-90
2022/12/12 09:18:18;;;;;;;30.00;12.68;;;;;;;2.91;65.78;101213.88;5100627;28;20020;-92
2022/12/12 09:20:50;;;;;;;28.83;13.35;;;;;;;3.62;66.35;101221.41;5084512;28;20118;-92
2022/12/12 09:23:17;;;;;;;27.00;12.13;;;;;;;4.97;61.17;101221.19;5105652;28;20050;-91
2022/12/12 09:25:43;;;;;;;35.42;14.05;;;;;;;6.18;59.58;101227.47;5086484;28;20051;-91
2022/12/12 09:28:14;;;;;;;26.40;11.73;;;;;;;6.87;56.32;101228.00;5091755;28;20040;-91
2022/12/12 09:30:40;;;;;;;29.05;12.00;;;;;;;7.10;51.57;101229.31;5079885;28;20032;-91
2022/12/12 09:33:05;;;;;;;30.25;12.15;;;;;;;7.68;51.46;101220.22;5099869;28;20475;-90
2022/12/12 09:35:31;;;;;;;29.00;10.98;;;;;;;8.78;50.47;101214.06;5096683;28;20059;-92
2022/12/12 09:37:56;;;;;;;25.50;10.13;;;;;;;9.31;49.85;101223.09;5095112;28;20024;-91
2022/12/12 09:40:58;;;;;;;22.65;10.60;;;;;;;10.11;52.19;101228.59;5074490;28;20119;-91
2022/12/12 09:43:27;;;;;;;21.30;10.32;;;;;;;10.79;44.59;101222.84;5076441;28;20016;-91
2022/12/12 09:45:53;;;;;;;26.38;12.05;;;;;;;11.34;42.86;101220.00;5098804;28;20096;-92
2022/12/12 09:48:43;;;;;;;23.15;10.55;;;;;;;11.95;47.94;101204.41;5094213;28;20031;-91
2022/12/12 09:51:13;;;;;;;24.40;10.88;;;;;;;12.29;41.60;101217.16;5095486;28;20135;-90
2022/12/12 09:53:41;;;;;;;21.88;10.75;;;;;;;12.49;39.51;101203.06;5100855;28;20399;-91
2022/12/12 09:56:36;;;;;;;25.70;12.23;;;;;;;12.45;42.28;101220.00;5086298;28;20368;-91
2022/12/12 09:59:08;;;;;;;21.38;10.70;;;;;;;12.62;40.93;101208.72;5078075;28;20042;-91
2022/12/12 10:01:38;;;;;;;21.08;9.77;;;;;;;13.13;39.55;101205.56;5075101;28;20031;-90
2022/12/12 10:04:27;;;;;;;21.67;9.63;;;;;;;13.40;38.45;101213.25;5078360;28;20110;-91
2022/12/12 10:07:11;;;;;;;21.25;10.95;;;;;;;13.40;42.58;101213.25;5074369;28;20364;-91
2022/12/12 10:09:45;;;;;;;21.42;10.35;;;;;;;13.60;38.99;101210.50;5092807;28;20391;-90
2022/12/12 10:12:15;;;;;;;21.70;9.35;;;;;;;13.87;36.91;101207.50;5077192;28;20020;-90
2022/12/12 10:14:45;;;;;;;24.60;10.18;;;;;;;14.65;36.38;101212.50;5072907;28;20127;-90
2022/12/12 10:17:15;;;;;;;21.80;9.70;;;;;;;14.53;34.40;101205.97;5085517;28;20107;-90
2022/12/12 10:19:51;;;;;;;19.63;10.25;;;;;;;14.51;33.94;101215.84;5102045;28;20047;-90
2022/12/12 10:22:35;;;;;;;18.50;9.95;;;;;;;14.74;38.84;101204.03;5099844;28;20027;-89
2022/12/12 10:25:19;;;;;;;18.95;9.02;;;;;;;15.12;40.59;101203.81;5079018;28;20027;-91
2022/12/12 10:27:45;;;;;;;18.83;9.88;;;;;;;15.06;31.84;101196.13;5096317;28;20024;-90
2022/12/12 10:30:18;;;;;;;21.35;9.27;;;;;;;14.87;35.70;101188.25;5072363;28;20125;-86
2022/12/12 10:33:15;;;;;;;19.73;9.70;;;;;;;15.73;38.34;101215.66;5093991;28;20034;-87
2022/12/12 10:36:12;;;;;;;20.65;8.82;;;;;;;16.63;38.77;101207.75;5078948;28;20535;-87
2022/12/12 10:39:21;;;;;;;19.85;9.57;;;;;;;17.04;35.98;101207.97;5044785;28;20039;-86
2022/12/12 10:41:53;;;;;;;19.25;9.57;;;;;;;16.52;29.90;101200.41;5095851;28;20513;-86
2022/12/12 10:44:36;;;;;;;19.98;9.85;;;;;;;16.87;33.14;101192.09;5091523;28;20100;-86
2022/12/12 10:47:08;;;;;;;18.30;8.98;;;;;;;17.32;30.39;101196.41;5100571;28;20527;-88
2022/12/12 10:49:34;;;;;;;;;;;;;;;18.12;37.04;101201.16;5099402;28;20036;-88
2022/12/12 10:52:03;;;;;;;16.85;8.80;;;;;;;17.57;27.49;101181.50;5108905;28;19918;-87
2022/12/12 10:54:32;;;;;;;19.48;9.68;;;;;;;17.51;29.50;101190.78;5084887;28;20386;-88
2022/12/12 10:57:21;;;;;;;17.80;9.50;;;;;;;17.40;32.28;101187.94;5098707;28;20087;-87
2022/12/12 10:59:47;;;;;;;15.35;8.80;;;;;;;17.34;30.86;101186.47;5095284;28;20031;-87
2022/12/12 11:02:38;;;;;;;15.85;9.50;;;;;;;17.37;28.46;101189.94;5104194;28;20046;-88
2022/12/12 11:05:04;;;;;;;16.42;8.88;;;;;;;17.05;27.87;101188.31;5081068;28;20031;-87
2022/12/12 11:07:30;;;;;;;20.87;10.60;;;;;;;16.54;27.13;101187.81;5093579;28;20237;-87
2022/12/12 11:09:57;;;;;;;18.45;10.05;;;;;;;16.60;29.69;101175.94;5083717;28;20846;-87
2022/12/12 11:12:34;;;;;;;18.13;9.80;;;;;;;16.35;31.09;101167.63;5098782;28;20030;-87
2022/12/12 11:15:14;;;;;;;19.88;10.02;;;;;;;16.70;29.61;101176.22;5087991;28;20479;-87
2022/12/12 11:17:39;;;;;;;19.17;9.63;;;;;;;17.15;27.57;101179.72;5099461;28;20036;-87
2022/12/12 11:20:08;;;;;;;20.60;9.50;;;;;;;17.26;27.95;101170.09;5097164;28;20032;-87
2022/12/12 11:22:37;;;;;;;19.42;10.88;;;;;;;17.49;30.47;101170.44;5072564;28;20081;-86
2022/12/12 11:25:04;;;;;;;17.70;8.85;;;;;;;18.12;26.76;101174.41;5098377;28;20494;-88
2022/12/12 11:27:33;;;;;;;19.02;9.73;;;;;;;17.70;29.12;101168.19;5101606;28;20039;-88
2022/12/12 11:30:06;;;;;;;20.60;9.75;;;;;;;16.81;27.71;101171.13;5075018;28;20110;-87
2022/12/12 11:32:45;;;;;;;15.55;9.27;;;;;;;17.51;29.64;101168.53;5076638;28;20430;-88
2022/12/12 11:35:36;;;;;;;15.98;9.27;;;;;;;18.35;29.30;101168.38;5089520;28;20553;-87